KVNY

Los Angeles/Van Nuys

Airport
ICAO code
KVNY
Summary
ICAO Region
NAM
ICAO Territory
Location

Van Nuys, Los Angeles, California,

Coordinates
34° 12' 35" N , 118° 29' 24" W
KCC
Metar
Observation
KVNY 281151Z AUTO 00000KT 6SM HZ SCT011 OVC019 12/09 A2995 RMK AO2 SLP135 T01220089 10139 20117 56010 $
Station
Van Nuys, Van Nuys Airport
Date/Time
2022-11-28 11:51:00
Wind direction
Wind speed
00 kts
Lowest cloud amount
scattered clouds
Temperature
12.2°C
Dew point
8.9°C
Humidity
80%
Weather condition
haze

Description

Van Nuys Airport is a public airport located in Van Nuys in the San Fernando Valley section of the city limits of Los Angeles, California, United States. No major commercial airlines fly into this airport; it is used by private, chartered, and small commercial aircraft.

Climatology

Mediterranean climate or Dry-Summer Subtropical (Köppen climate classification Csa) - Summers are warm to hot and dry. Winters are mild and somewhat rainy. Spring and autumn bring mild days with cool evenings and are generally dry.

Runways

Designator Length Width Surface Rops
16L/34R 1223 23 ASP Yes/Yes
16R/34L 2439 46 ASP Yes/Yes

Airport map

Aerial View

SKYbrary Partners:

Safety knowledge contributed by: